Chigwell, United Kingdom
Current Conditions -  °F | °C
As of 12:50 AM on Friday 26 Dec 2014 (Local Time) from EGGD Reporting Station
Clear Clear  
Wind Chill: 30°   Ceiling: Unl
Heat Index: 36°   Visibility: 6mi
Dew Point: 34°   Wind: 7mph
Humidity: 93%   Direction: 260°W
Pressure: 30.48"   Gusts: NA
Location:  51.61°N, 2.85°W
Report Text: EGGD 260050Z 26006KT CAVOK 02/01 Q1032
Loading
Personal Weather Stations






























Interactive Weather Map New forecast layout! Learn more

10-Day Weather Forecast

Advertisements
Track Severe Weather on mobile